createdAt,value
2023-02-19T00:01:42.720Z,102575.41
2023-02-19T00:04:18.272Z,102574.53
2023-02-19T00:06:46.237Z,102581.69
2023-02-19T00:09:15.194Z,102589.72
2023-02-19T00:11:43.050Z,102580.72
2023-02-19T00:14:14.444Z,102585.16
2023-02-19T00:16:41.278Z,102596.91
2023-02-19T00:19:13.773Z,102582.31
2023-02-19T00:21:40.508Z,102590.59
2023-02-19T00:24:08.111Z,102594.31
2023-02-19T00:26:35.613Z,102594.44
2023-02-19T00:29:02.657Z,102596.28
2023-02-19T00:31:33.000Z,102594.53
2023-02-19T00:34:03.482Z,102596.41
2023-02-19T00:36:30.948Z,102592.19
2023-02-19T00:38:57.746Z,102595.03
2023-02-19T00:41:25.460Z,102585.53
2023-02-19T00:44:04.332Z,102594.78
2023-02-19T00:46:33.696Z,102599.47
2023-02-19T00:49:00.936Z,102600.34
2023-02-19T00:51:33.000Z,102621.94
2023-02-19T00:54:00.258Z,102627.13
2023-02-19T00:56:27.246Z,102630.63
2023-02-19T00:58:54.406Z,102649.63
2023-02-19T01:01:21.242Z,102645.19
2023-02-19T01:03:48.460Z,102636.19
2023-02-19T01:06:18.648Z,102627.13
2023-02-19T01:08:45.676Z,102630.88
2023-02-19T01:11:12.963Z,102637.28
2023-02-19T01:13:40.326Z,102622.06
2023-02-19T01:16:11.836Z,102622.06
2023-02-19T01:18:39.378Z,102624.78
2023-02-19T01:21:08.003Z,102630.34
2023-02-19T01:23:36.091Z,102628.72
2023-02-19T01:26:13.406Z,102643.53
2023-02-19T01:28:40.583Z,102634.66
2023-02-19T01:31:11.195Z,102639.22
2023-02-19T01:33:38.061Z,102640.19
2023-02-19T01:36:06.749Z,102627.84
2023-02-19T01:38:33.449Z,102634.50
2023-02-19T01:41:03.132Z,102637.44
2023-02-19T01:43:35.022Z,102647.94
2023-02-19T01:46:01.826Z,102650.00
2023-02-19T01:48:37.055Z,102656.41
2023-02-19T01:51:12.197Z,102649.91
2023-02-19T01:53:46.130Z,102639.69
2023-02-19T01:56:16.166Z,102641.25
2023-02-19T01:58:43.342Z,102629.53
2023-02-19T02:01:12.038Z,102625.97
2023-02-19T02:03:41.926Z,102642.28
2023-02-19T02:06:17.393Z,102635.94
2023-02-19T02:09:03.580Z,102634.38
2023-02-19T02:11:30.918Z,102633.72
2023-02-19T02:13:58.667Z,102634.28
2023-02-19T02:16:34.767Z,102638.03
2023-02-19T02:19:40.497Z,102630.44
2023-02-19T02:22:19.914Z,102633.75
2023-02-19T02:25:21.706Z,102655.38
2023-02-19T02:28:08.680Z,102655.00
2023-02-19T02:30:43.678Z,102673.03
2023-02-19T02:33:33.314Z,102678.47
2023-02-19T02:36:06.565Z,102689.44
2023-02-19T02:38:37.477Z,102679.78
2023-02-19T02:41:05.662Z,102679.16
2023-02-19T02:43:32.898Z,102689.16
2023-02-19T02:45:59.873Z,102685.47
2023-02-19T02:48:54.152Z,102688.19
2023-02-19T02:51:32.034Z,102673.31
2023-02-19T02:54:30.219Z,102685.59
2023-02-19T02:56:58.718Z,102693.53
2023-02-19T02:59:34.108Z,102690.28
2023-02-19T03:02:19.132Z,102694.84
2023-02-19T03:05:22.307Z,102700.28
2023-02-19T03:08:04.765Z,102702.16
2023-02-19T03:10:48.644Z,102703.22
2023-02-19T03:14:00.401Z,102709.63
2023-02-19T03:16:50.472Z,102712.47
2023-02-19T03:19:20.671Z,102712.22
2023-02-19T03:22:02.795Z,102715.81
2023-02-19T03:24:56.546Z,102708.66
2023-02-19T03:27:26.910Z,102720.81
2023-02-19T03:29:56.981Z,102724.84
2023-02-19T03:32:44.666Z,102722.56
2023-02-19T03:35:22.175Z,102724.66
2023-02-19T03:38:03.091Z,102716.63
2023-02-19T03:40:34.519Z,102723.25
2023-02-19T03:43:08.428Z,102721.63
2023-02-19T03:45:47.444Z,102711.00
2023-02-19T03:48:23.197Z,102716.53
2023-02-19T03:51:01.244Z,102717.63
2023-02-19T03:54:03.260Z,102707.63
2023-02-19T03:56:36.584Z,102713.84
2023-02-19T03:59:11.987Z,102713.84
2023-02-19T04:01:54.137Z,102707.63
2023-02-19T04:04:24.358Z,102720.34
2023-02-19T04:06:55.552Z,102726.72
2023-02-19T04:09:25.464Z,102737.47
2023-02-19T04:11:53.914Z,102736.63
2023-02-19T04:14:26.418Z,102740.94
2023-02-19T04:17:03.225Z,102739.94
2023-02-19T04:19:35.107Z,102735.19
2023-02-19T04:22:04.495Z,102736.16
2023-02-19T04:24:44.720Z,102753.28
2023-02-19T04:27:11.692Z,102738.88
2023-02-19T04:29:39.282Z,102735.94
2023-02-19T04:32:06.830Z,102736.81
2023-02-19T04:34:33.507Z,102741.34
2023-02-19T04:37:00.162Z,102722.47
2023-02-19T04:39:27.199Z,102735.06
2023-02-19T04:41:53.933Z,102742.34
2023-02-19T04:44:20.868Z,102757.44
2023-02-19T04:46:48.146Z,102760.66
2023-02-19T04:49:14.931Z,102759.59
2023-02-19T04:51:42.098Z,102757.53
2023-02-19T04:54:09.095Z,102759.03
2023-02-19T04:56:35.873Z,102764.13
2023-02-19T04:59:02.874Z,102774.75
2023-02-19T05:01:29.916Z,102771.81
2023-02-19T05:03:56.575Z,102769.75
2023-02-19T05:06:23.272Z,102770.50
2023-02-19T05:08:50.119Z,102764.09
2023-02-19T05:11:17.308Z,102761.31
2023-02-19T05:13:44.080Z,102755.63
2023-02-19T05:16:16.467Z,102739.34
2023-02-19T05:18:45.655Z,102729.28
2023-02-19T05:21:12.667Z,102722.09
2023-02-19T05:23:40.435Z,102733.94
2023-02-19T05:26:09.053Z,102732.97
2023-02-19T05:28:36.232Z,102734.81
2023-02-19T05:31:09.058Z,102735.91
2023-02-19T05:33:37.360Z,102734.34
2023-02-19T05:36:13.025Z,102736.34
2023-02-19T05:38:40.246Z,102731.00
2023-02-19T05:41:18.631Z,102708.44
2023-02-19T05:43:46.922Z,102698.78
2023-02-19T05:46:16.053Z,102701.59
2023-02-19T05:48:43.407Z,102703.59
2023-02-19T05:51:12.900Z,102699.97
2023-02-19T05:53:40.269Z,102704.66
2023-02-19T05:56:33.100Z,102700.09
2023-02-19T05:59:03.883Z,102717.22
2023-02-19T06:01:30.941Z,102702.69
2023-02-19T06:03:58.638Z,102706.19
2023-02-19T06:06:27.000Z,102700.75
2023-02-19T06:08:54.124Z,102672.84
2023-02-19T06:11:21.241Z,102674.06
2023-02-19T06:13:50.183Z,102673.53
2023-02-19T06:16:17.960Z,102676.25
2023-02-19T06:18:46.195Z,102672.53
2023-02-19T06:21:13.882Z,102668.00
2023-02-19T06:23:41.081Z,102671.69
2023-02-19T06:26:12.229Z,102677.13
2023-02-19T06:28:40.204Z,102671.69
2023-02-19T06:31:08.193Z,102649.88
2023-02-19T06:33:35.777Z,102647.16
2023-02-19T06:36:05.002Z,102658.88
2023-02-19T06:38:31.801Z,102645.41
2023-02-19T06:41:03.380Z,102649.97
2023-02-19T06:43:31.067Z,102657.47
2023-02-19T06:46:06.184Z,102659.44
2023-02-19T06:48:33.748Z,102661.06
2023-02-19T06:51:00.574Z,102643.06
2023-02-19T06:53:27.926Z,102646.72
2023-02-19T06:56:07.988Z,102663.78
2023-02-19T06:58:35.313Z,102679.06
2023-02-19T07:01:02.013Z,102675.50
2023-02-19T07:03:28.810Z,102666.38
2023-02-19T07:05:55.889Z,102670.84
2023-02-19T07:08:22.576Z,102669.84
2023-02-19T07:10:59.320Z,102667.13
2023-02-19T07:13:27.266Z,102668.97
2023-02-19T07:16:02.977Z,102687.84
2023-02-19T07:18:30.451Z,102695.13
2023-02-19T07:21:06.405Z,102696.00
2023-02-19T07:23:33.207Z,102699.44
2023-02-19T07:26:00.068Z,102698.47
2023-02-19T07:28:27.279Z,102702.06
2023-02-19T07:30:54.561Z,102701.94
2023-02-19T07:33:21.220Z,102707.25
2023-02-19T07:35:49.131Z,102711.72
2023-02-19T07:38:23.572Z,102712.56
2023-02-19T07:40:53.217Z,102722.22
2023-02-19T07:43:20.279Z,102719.41
2023-02-19T07:45:47.265Z,102726.44
2023-02-19T07:48:14.245Z,102716.56
2023-02-19T07:50:41.591Z,102724.72
2023-02-19T07:53:08.250Z,102729.41
2023-02-19T07:55:35.466Z,102728.50
2023-02-19T07:58:02.105Z,102732.09
2023-02-19T08:00:28.786Z,102735.78
2023-02-19T08:03:02.842Z,102728.50
2023-02-19T08:05:34.374Z,102732.09
2023-02-19T08:08:01.152Z,102732.97
2023-02-19T08:10:46.866Z,102728.38
2023-02-19T08:13:25.662Z,102732.97
2023-02-19T08:15:56.320Z,102731.09
2023-02-19T08:18:26.874Z,102739.13
2023-02-19T08:20:55.457Z,102725.56
2023-02-19T08:23:22.479Z,102734.34
2023-02-19T08:25:50.510Z,102739.59
2023-02-19T08:28:18.465Z,102749.25
2023-02-19T08:30:47.308Z,102748.16
2023-02-19T08:33:19.420Z,102742.59
2023-02-19T08:35:46.583Z,102737.06
2023-02-19T08:38:14.578Z,102738.91
2023-02-19T08:40:41.622Z,102747.06
2023-02-19T08:43:11.348Z,102733.50
2023-02-19T08:45:40.383Z,102727.22
2023-02-19T08:48:07.963Z,102710.03
2023-02-19T08:50:35.677Z,102726.31
2023-02-19T08:53:03.987Z,102719.91
2023-02-19T08:55:31.082Z,102716.25
2023-02-19T08:57:57.983Z,102705.59
2023-02-19T09:00:24.760Z,102699.19
2023-02-19T09:02:51.644Z,102700.91
2023-02-19T09:05:18.424Z,102704.50
2023-02-19T09:07:45.064Z,102707.84
2023-02-19T09:10:13.742Z,102709.59
2023-02-19T09:12:41.036Z,102711.19
2023-02-19T09:15:08.086Z,102717.38
2023-02-19T09:17:35.077Z,102712.69
2023-02-19T09:20:01.806Z,102722.59
2023-02-19T09:22:28.532Z,102716.06
2023-02-19T09:24:55.560Z,102717.81
2023-02-19T09:27:22.187Z,102715.72
2023-02-19T09:29:48.831Z,102716.25
2023-02-19T09:32:17.504Z,102719.50
2023-02-19T09:34:45.578Z,102720.75
2023-02-19T09:37:12.204Z,102723.75
2023-02-19T09:39:39.136Z,102724.91
2023-02-19T09:42:22.401Z,102725.81
2023-02-19T09:44:52.321Z,102724.25
2023-02-19T09:47:21.911Z,102730.06
2023-02-19T09:49:52.357Z,102735.50
2023-02-19T09:52:24.384Z,102740.69
2023-02-19T09:54:52.184Z,102743.53
2023-02-19T09:57:21.712Z,102748.72
2023-02-19T09:59:52.045Z,102758.38
2023-02-19T10:02:21.487Z,102763.44
2023-02-19T10:04:51.282Z,102757.56
2023-02-19T10:07:46.005Z,102768.91
2023-02-19T10:10:12.592Z,102764.25
2023-02-19T10:12:48.068Z,102757.59
2023-02-19T10:15:36.905Z,102761.28
2023-02-19T10:18:05.736Z,102757.06
2023-02-19T10:20:32.557Z,102760.88
2023-02-19T10:23:02.204Z,102751.00
2023-02-19T10:25:30.207Z,102748.28
2023-02-19T10:27:59.589Z,102752.59
2023-02-19T10:30:31.836Z,102755.31
2023-02-19T10:33:13.454Z,102746.44
2023-02-19T10:35:58.909Z,102756.81
2023-02-19T10:38:40.386Z,102758.72
2023-02-19T10:41:14.514Z,102758.84
2023-02-19T10:43:50.241Z,102765.41
2023-02-19T10:46:22.354Z,102757.03
2023-02-19T10:48:55.062Z,102759.09
2023-02-19T10:51:31.464Z,102760.47
2023-02-19T10:54:35.475Z,102764.94
2023-02-19T10:57:30.284Z,102749.72
2023-02-19T11:00:22.813Z,102759.69
2023-02-19T11:02:50.185Z,102752.78
2023-02-19T11:05:22.411Z,102756.38
2023-02-19T11:07:57.331Z,102761.69
2023-02-19T11:10:28.426Z,102772.06
2023-02-19T11:12:59.444Z,102763.81
2023-02-19T11:15:32.338Z,102759.63
2023-02-19T11:18:19.384Z,102764.44
2023-02-19T11:20:50.809Z,102766.03
2023-02-19T11:23:22.488Z,102761.25
2023-02-19T11:25:50.571Z,102756.53
2023-02-19T11:28:17.945Z,102754.72
2023-02-19T11:30:47.662Z,102747.38
2023-02-19T11:33:17.037Z,102741.56
2023-02-19T11:35:45.017Z,102734.25
2023-02-19T11:38:14.492Z,102742.66
2023-02-19T11:40:53.616Z,102743.88
2023-02-19T11:43:32.618Z,102746.34
2023-02-19T11:46:07.181Z,102759.69
2023-02-19T11:48:54.906Z,102746.22
2023-02-19T11:51:31.513Z,102728.00
2023-02-19T11:54:19.109Z,102730.00
2023-02-19T11:56:53.533Z,102722.34
2023-02-19T11:59:30.294Z,102721.69
2023-02-19T12:02:17.914Z,102722.13
2023-02-19T12:04:59.168Z,102718.47
2023-02-19T12:07:41.070Z,102716.16
2023-02-19T12:10:34.246Z,102702.28
2023-02-19T12:13:13.854Z,102694.63
2023-02-19T12:16:05.214Z,102706.88
2023-02-19T12:18:49.746Z,102691.31
2023-02-19T12:21:22.452Z,102680.50
2023-02-19T12:24:12.361Z,102673.50
2023-02-19T12:27:24.505Z,102672.84
2023-02-19T12:30:03.357Z,102654.72
2023-02-19T12:32:52.527Z,102647.78
2023-02-19T12:35:34.930Z,102634.13
2023-02-19T12:38:29.843Z,102629.47
2023-02-19T12:41:19.722Z,102624.00
2023-02-19T12:43:54.010Z,102601.00
2023-02-19T12:46:36.507Z,102592.97
2023-02-19T12:49:20.081Z,102577.31
2023-02-19T12:51:49.571Z,102578.47
2023-02-19T12:54:31.163Z,102571.44
2023-02-19T12:57:01.387Z,102560.50
2023-02-19T12:59:42.503Z,102558.34
2023-02-19T13:02:24.104Z,102559.34
2023-02-19T13:05:02.897Z,102538.66
2023-02-19T13:07:47.804Z,102528.16
2023-02-19T13:10:39.492Z,102528.03
2023-02-19T13:13:12.582Z,102537.66
2023-02-19T13:15:46.516Z,102526.75
2023-02-19T13:18:40.896Z,102528.31
2023-02-19T13:21:09.610Z,102530.84
2023-02-19T13:23:59.738Z,102511.81
2023-02-19T13:26:49.415Z,102521.38
2023-02-19T13:29:21.633Z,102527.78
2023-02-19T13:31:57.128Z,102526.59
2023-02-19T13:34:29.621Z,102527.53
2023-02-19T13:36:56.765Z,102532.88
2023-02-19T13:39:23.806Z,102518.94
2023-02-19T13:41:53.208Z,102523.72
2023-02-19T13:44:23.217Z,102517.28
2023-02-19T13:46:50.834Z,102517.59
2023-02-19T13:49:30.070Z,102518.78
2023-02-19T13:52:26.974Z,102509.47
2023-02-19T13:55:31.837Z,102527.97
2023-02-19T13:58:35.426Z,102515.91
2023-02-19T14:01:08.244Z,102535.59
2023-02-19T14:03:34.844Z,102529.38
2023-02-19T14:06:06.548Z,102538.16
2023-02-19T14:08:58.877Z,102529.28
2023-02-19T14:11:44.332Z,102517.78
2023-02-19T14:14:23.109Z,102508.81
2023-02-19T14:16:57.071Z,102528.47
2023-02-19T14:19:41.936Z,102512.28
2023-02-19T14:22:57.971Z,102474.13
2023-02-19T14:25:27.840Z,102514.66
2023-02-19T14:28:11.752Z,102493.72
2023-02-19T14:31:01.048Z,102489.63
2023-02-19T14:33:36.404Z,102468.22
2023-02-19T14:36:18.154Z,102476.13
2023-02-19T14:38:58.564Z,102471.19
2023-02-19T14:41:27.070Z,102477.94
2023-02-19T14:43:56.551Z,102463.53
2023-02-19T14:46:37.979Z,102458.22
2023-02-19T14:49:18.440Z,102451.22
2023-02-19T14:51:51.550Z,102433.47
2023-02-19T14:54:20.960Z,102441.03
2023-02-19T14:56:52.565Z,102409.53
2023-02-19T14:59:24.292Z,102423.28
2023-02-19T15:02:27.240Z,102398.41
2023-02-19T15:04:54.707Z,102407.09
2023-02-19T15:07:33.375Z,102392.31
2023-02-19T15:10:05.837Z,102409.09
2023-02-19T15:13:06.783Z,102389.16
2023-02-19T15:15:40.925Z,102391.19
2023-02-19T15:18:07.848Z,102385.34
2023-02-19T15:20:38.031Z,102381.47
2023-02-19T15:23:08.416Z,102382.66
2023-02-19T15:25:38.215Z,102380.03
2023-02-19T15:28:23.941Z,102381.50
2023-02-19T15:30:52.134Z,102373.59
2023-02-19T15:33:20.444Z,102366.56
2023-02-19T15:35:56.145Z,102363.84
2023-02-19T15:38:22.929Z,102366.88
2023-02-19T15:40:50.561Z,102367.19
2023-02-19T15:43:28.512Z,102369.19
2023-02-19T15:46:01.346Z,102360.97
2023-02-19T15:48:31.874Z,102360.97
2023-02-19T15:51:08.284Z,102358.41
2023-02-19T15:53:42.932Z,102351.38
2023-02-19T15:56:20.664Z,102347.09
2023-02-19T15:59:13.651Z,102348.09
2023-02-19T16:01:40.812Z,102330.84
2023-02-19T16:04:15.405Z,102331.84
2023-02-19T16:06:52.937Z,102339.75
2023-02-19T16:09:22.030Z,102333.44
2023-02-19T16:11:54.521Z,102336.84
2023-02-19T16:14:39.233Z,102332.13
2023-02-19T16:17:12.684Z,102339.28
2023-02-19T16:19:48.598Z,102317.75
2023-02-19T16:22:19.687Z,102324.06
2023-02-19T16:24:50.186Z,102312.28
2023-02-19T16:27:37.647Z,102302.22
2023-02-19T16:30:32.264Z,102298.47
2023-02-19T16:33:36.932Z,102284.28
2023-02-19T16:36:41.919Z,102301.09
2023-02-19T16:39:08.647Z,102282.28
2023-02-19T16:41:41.088Z,102284.31
2023-02-19T16:44:31.212Z,102274.69
2023-02-19T16:47:13.761Z,102286.78
2023-02-19T16:49:42.800Z,102286.19
2023-02-19T16:52:14.748Z,102294.53
2023-02-19T16:54:41.511Z,102283.06
2023-02-19T16:57:08.475Z,102283.19
2023-02-19T16:59:35.174Z,102280.06
2023-02-19T17:02:05.271Z,102279.19
2023-02-19T17:04:32.315Z,102274.75
2023-02-19T17:06:59.013Z,102288.69
2023-02-19T17:09:25.778Z,102276.34
2023-02-19T17:11:52.549Z,102276.78
2023-02-19T17:14:19.484Z,102275.31
2023-02-19T17:16:46.908Z,102275.03
2023-02-19T17:19:17.395Z,102280.81
2023-02-19T17:21:45.313Z,102281.25
2023-02-19T17:24:12.245Z,102274.94
2023-02-19T17:26:39.413Z,102276.94
2023-02-19T17:29:07.466Z,102274.94
2023-02-19T17:31:34.464Z,102277.66
2023-02-19T17:34:01.372Z,102284.28
2023-02-19T17:36:32.511Z,102282.69
2023-02-19T17:39:00.632Z,102279.22
2023-02-19T17:41:28.087Z,102281.81
2023-02-19T17:43:55.267Z,102289.00
2023-02-19T17:46:24.903Z,102294.44
2023-02-19T17:48:51.927Z,102294.72
2023-02-19T17:51:18.813Z,102294.28
2023-02-19T17:53:46.730Z,102276.63
2023-02-19T17:56:26.030Z,102280.94
2023-02-19T17:58:53.627Z,102285.25
2023-02-19T18:01:20.934Z,102272.19
2023-02-19T18:03:47.791Z,102271.00
2023-02-19T18:06:14.752Z,102275.31
2023-02-19T18:08:48.335Z,102280.63
2023-02-19T18:11:15.320Z,102284.06
2023-02-19T18:13:42.054Z,102287.50
2023-02-19T18:16:10.188Z,102290.97
2023-02-19T18:18:37.265Z,102291.81
2023-02-19T18:21:07.592Z,102284.50
2023-02-19T18:23:34.458Z,102283.47
2023-02-19T18:26:01.219Z,102295.28
2023-02-19T18:28:27.915Z,102290.66
2023-02-19T18:30:54.950Z,102286.03
2023-02-19T18:33:21.709Z,102281.47
2023-02-19T18:35:50.375Z,102281.47
2023-02-19T18:38:17.333Z,102267.81
2023-02-19T18:40:44.065Z,102289.81
2023-02-19T18:43:10.886Z,102284.19
2023-02-19T18:45:37.901Z,102280.59
2023-02-19T18:48:05.162Z,102284.34
2023-02-19T18:50:33.421Z,102272.41
2023-02-19T18:53:00.227Z,102265.25
2023-02-19T18:55:26.879Z,102274.28
2023-02-19T18:57:53.656Z,102278.00
2023-02-19T19:00:25.790Z,102258.75
2023-02-19T19:02:57.723Z,102260.47
2023-02-19T19:05:24.837Z,102265.09
2023-02-19T19:07:55.631Z,102266.78
2023-02-19T19:10:23.433Z,102265.09
2023-02-19T19:12:50.522Z,102271.25
2023-02-19T19:15:18.782Z,102258.47
2023-02-19T19:17:46.291Z,102260.31
2023-02-19T19:20:14.058Z,102260.31
2023-02-19T19:22:40.997Z,102261.19
2023-02-19T19:25:08.771Z,102258.47
2023-02-19T19:27:35.489Z,102266.66
2023-02-19T19:30:02.947Z,102254.88
2023-02-19T19:32:29.654Z,102253.00
2023-02-19T19:34:57.760Z,102246.66
2023-02-19T19:37:28.424Z,102247.56
2023-02-19T19:39:58.903Z,102255.88
2023-02-19T19:42:25.789Z,102243.25
2023-02-19T19:44:52.700Z,102246.97
2023-02-19T19:47:19.524Z,102246.97
2023-02-19T19:49:47.453Z,102247.97
2023-02-19T19:52:14.896Z,102247.97
2023-02-19T19:54:54.144Z,102244.41
2023-02-19T19:57:21.440Z,102251.88
2023-02-19T19:59:51.879Z,102241.97
2023-02-19T20:02:19.476Z,102237.38
2023-02-19T20:04:46.347Z,102237.38
2023-02-19T20:07:41.522Z,102246.72
2023-02-19T20:10:11.390Z,102236.94
2023-02-19T20:12:43.438Z,102233.81
2023-02-19T20:15:10.608Z,102223.47
2023-02-19T20:17:37.647Z,102233.13
2023-02-19T20:20:05.315Z,102240.16
2023-02-19T20:22:32.266Z,102228.97
2023-02-19T20:25:01.572Z,102234.13
2023-02-19T20:27:28.926Z,102238.47
2023-02-19T20:29:55.783Z,102242.50
2023-02-19T20:32:22.903Z,102230.00
2023-02-19T20:34:49.855Z,102234.75
2023-02-19T20:37:16.631Z,102242.09
2023-02-19T20:39:43.508Z,102248.09
2023-02-19T20:42:10.581Z,102251.09
2023-02-19T20:44:42.643Z,102235.44
2023-02-19T20:47:09.495Z,102248.97
2023-02-19T20:49:36.539Z,102243.50
2023-02-19T20:52:07.370Z,102250.66
2023-02-19T20:55:34.198Z,102245.06
2023-02-19T20:58:00.903Z,102258.69
2023-02-19T21:00:38.060Z,102256.13
2023-02-19T21:06:48.283Z,102253.84
2023-02-19T21:10:14.760Z,102251.41
2023-02-19T21:12:42.335Z,102252.84
2023-02-19T21:16:09.032Z,102253.25
2023-02-19T21:18:50.722Z,102245.53
2023-02-19T21:21:20.172Z,102248.84
2023-02-19T21:24:46.748Z,102251.13
2023-02-19T21:28:13.308Z,102238.78
2023-02-19T21:31:40.124Z,102238.09
2023-02-19T21:35:06.737Z,102250.28
2023-02-19T21:38:15.704Z,102244.25
2023-02-19T21:40:42.391Z,102241.81
2023-02-19T21:47:00.557Z,102255.44
2023-02-19T21:49:47.171Z,102243.09
2023-02-19T21:53:13.967Z,102249.09
2023-02-19T21:56:40.556Z,102255.81
2023-02-19T22:00:07.533Z,102243.38
2023-02-19T22:02:50.517Z,102274.47
2023-02-19T22:05:46.067Z,102257.41
2023-02-19T22:08:15.596Z,102263.97
2023-02-19T22:10:42.687Z,102262.44
2023-02-19T22:13:10.340Z,102253.50
2023-02-19T22:15:39.750Z,102259.97
2023-02-19T22:18:06.497Z,102257.38
2023-02-19T22:20:34.912Z,102253.06
2023-02-19T22:23:01.865Z,102254.22
2023-02-19T22:25:28.644Z,102251.63
2023-02-19T22:32:09.545Z,102257.63
2023-02-19T22:34:40.735Z,102244.16
2023-02-19T22:37:07.849Z,102249.91
2023-02-19T22:39:34.775Z,102241.00
2023-02-19T22:42:01.757Z,102227.53
2023-02-19T22:44:29.069Z,102239.25
2023-02-19T22:46:59.512Z,102230.97
2023-02-19T22:49:26.420Z,102233.69
2023-02-19T22:52:02.586Z,102227.09
2023-02-19T22:54:29.503Z,102230.69
2023-02-19T22:56:58.193Z,102235.25
2023-02-19T22:59:25.181Z,102226.25
2023-02-19T23:01:52.758Z,102215.50
2023-02-19T23:04:25.094Z,102214.75
2023-02-19T23:06:52.494Z,102215.91
2023-02-19T23:09:22.651Z,102218.63
2023-02-19T23:11:51.881Z,102215.19
2023-02-19T23:14:20.776Z,102216.16
2023-02-19T23:16:47.574Z,102224.09
2023-02-19T23:19:15.990Z,102211.47
2023-02-19T23:21:45.413Z,102209.44
2023-02-19T23:24:13.869Z,102204.88
2023-02-19T23:26:49.307Z,102209.44
2023-02-19T23:29:23.468Z,102201.28
2023-02-19T23:31:51.922Z,102197.72
2023-02-19T23:34:19.584Z,102200.56
2023-02-19T23:36:49.429Z,102192.69
2023-02-19T23:39:19.990Z,102204.56
2023-02-19T23:42:27.373Z,102194.81
2023-02-19T23:45:53.899Z,102198.38
2023-02-19T23:52:12.862Z,102197.41
2023-02-19T23:54:39.607Z,102183.78
2023-02-19T23:57:06.296Z,102191.81
2023-02-19T23:59:33.072Z,102181.81
